Time;durP1;ratioP1;P1;durP2;ratioP2;P2;SDS_P1;SDS_P2;PMS_P1;PMS_P2;Temp;Humidity;BMP_temperature;BMP_pressure;BME280_temperature;BME280_humidity;BME280_pressure;Samples;Min_cycle;Max_cycle;Signal;HPM_P1;HPM_P2
2023/04/25 00:01:02;;;;;;;1.35;1.00;;;8.10;99.90;;;;;;5014649;28;20053;-63
2023/04/25 00:03:29;;;;;;;0.30;0.30;;;8.10;99.90;;;;;;5013059;28;20084;-63
2023/04/25 00:05:56;;;;;;;0.10;0.10;;;8.10;99.90;;;;;;5023112;28;20040;-63
2023/04/25 00:08:22;;;;;;;0.00;0.00;;;8.10;99.90;;;;;;5020670;28;20061;-63
2023/04/25 00:10:48;;;;;;;1.27;1.17;;;8.10;99.90;;;;;;5014632;28;20072;-63
2023/04/25 00:13:14;;;;;;;9.25;3.40;;;8.10;99.90;;;;;;5015788;28;20041;-63
2023/04/25 00:15:41;;;;;;;0.20;0.20;;;8.10;99.90;;;;;;5010556;28;20052;-63
2023/04/25 00:18:07;;;;;;;0.00;0.00;;;8.00;99.90;;;;;;5023199;28;20054;-63
2023/04/25 00:20:33;;;;;;;0.10;0.10;;;7.90;99.90;;;;;;5015136;28;20045;-63
2023/04/25 00:22:58;;;;;;;0.10;0.10;;;8.00;99.90;;;;;;5021124;28;20053;-63
2023/04/25 00:25:24;;;;;;;0.10;0.10;;;8.00;99.90;;;;;;5020845;28;20065;-63
2023/04/25 00:27:50;;;;;;;0.52;0.52;;;8.00;99.90;;;;;;5020663;28;20045;-62
2023/04/25 00:30:15;;;;;;;0.20;0.20;;;8.10;99.90;;;;;;5019781;28;20392;-63
2023/04/25 00:32:41;;;;;;;0.00;0.00;;;8.00;99.90;;;;;;5025199;28;20053;-63
2023/04/25 00:35:07;;;;;;;0.85;0.85;;;7.90;99.90;;;;;;5021475;28;20037;-63
2023/04/25 00:37:32;;;;;;;0.22;0.22;;;7.90;99.90;;;;;;5013909;28;20477;-63
2023/04/25 00:39:58;;;;;;;0.10;0.10;;;7.90;99.90;;;;;;5018893;28;20134;-63
2023/04/25 00:42:25;;;;;;;0.10;0.10;;;7.90;99.90;;;;;;5023989;28;20044;-63
2023/04/25 00:44:52;;;;;;;12.30;2.15;;;7.90;99.90;;;;;;5025941;28;20037;-63
2023/04/25 00:47:18;;;;;;;0.00;0.00;;;7.80;99.90;;;;;;5018212;28;20473;-63
2023/04/25 00:49:44;;;;;;;0.82;0.80;;;7.80;99.90;;;;;;5019701;28;20030;-63
2023/04/25 00:52:10;;;;;;;0.70;0.57;;;7.80;99.90;;;;;;5022288;28;20050;-63
2023/04/25 00:54:37;;;;;;;0.20;0.20;;;7.80;99.90;;;;;;5020075;28;20498;-63
2023/04/25 00:57:02;;;;;;;0.25;0.25;;;7.80;99.90;;;;;;5023670;28;20103;-63
2023/04/25 00:59:30;;;;;;;0.05;0.05;;;7.80;99.90;;;;;;5017861;28;20053;-63
2023/04/25 01:01:56;;;;;;;0.10;0.10;;;7.80;99.90;;;;;;5020431;28;20044;-63
2023/04/25 01:04:22;;;;;;;1.20;1.20;;;7.90;99.90;;;;;;5029731;28;20045;-63
2023/04/25 01:06:48;;;;;;;0.10;0.10;;;7.90;99.90;;;;;;5020034;28;20045;-63
2023/04/25 01:09:14;;;;;;;1.45;0.73;;;7.90;99.90;;;;;;5018050;28;20497;-63
2023/04/25 01:11:40;;;;;;;1.05;0.95;;;7.90;99.90;;;;;;5018785;28;20071;-63
2023/04/25 01:14:06;;;;;;;0.10;0.10;;;7.90;99.90;;;;;;5030262;28;20065;-63
2023/04/25 01:16:31;;;;;;;0.10;0.10;;;7.90;99.90;;;;;;5021619;28;20042;-62
2023/04/25 01:18:57;;;;;;;0.10;0.10;;;7.80;99.90;;;;;;5019897;28;20049;-62
2023/04/25 01:21:26;;;;;;;0.10;0.10;;;7.70;99.90;;;;;;5019346;28;20449;-63
2023/04/25 01:23:52;;;;;;;0.10;0.10;;;7.70;99.90;;;;;;5023778;28;20046;-63
2023/04/25 01:26:18;;;;;;;0.00;0.00;;;7.60;99.90;;;;;;5020443;28;20038;-63
2023/04/25 01:28:45;;;;;;;1.02;0.95;;;7.50;99.90;;;;;;5019685;28;20056;-62
2023/04/25 01:31:11;;;;;;;0.10;0.10;;;7.50;99.90;;;;;;5030384;28;20449;-63
2023/04/25 01:33:37;;;;;;;0.00;0.00;;;7.40;99.90;;;;;;5017342;28;20045;-63
2023/04/25 01:36:04;;;;;;;0.30;0.30;;;7.40;99.90;;;;;;5014233;28;20045;-63
2023/04/25 01:38:30;;;;;;;7.13;1.23;;;7.40;99.90;;;;;;5017272;28;20037;-62
2023/04/25 01:40:56;;;;;;;0.20;0.20;;;7.40;99.90;;;;;;5018560;28;20092;-63
2023/04/25 01:43:22;;;;;;;0.10;0.10;;;7.30;99.90;;;;;;5015462;28;20034;-63
2023/04/25 01:45:48;;;;;;;0.15;0.15;;;7.40;99.90;;;;;;5016091;28;20878;-62
2023/04/25 01:48:14;;;;;;;0.10;0.10;;;7.30;99.90;;;;;;5026237;28;20033;-63
2023/04/25 01:50:41;;;;;;;0.00;0.00;;;7.30;99.90;;;;;;5018584;28;20065;-63
2023/04/25 01:53:09;;;;;;;0.00;0.00;;;7.30;99.90;;;;;;5014957;28;20062;-63
2023/04/25 01:55:34;;;;;;;1.00;0.90;;;7.30;99.90;;;;;;5011230;28;20042;-63
2023/04/25 01:58:02;;;;;;;0.10;0.10;;;7.30;99.90;;;;;;5018400;28;20183;-63
2023/04/25 02:00:27;;;;;;;0.10;0.10;;;7.30;99.90;;;;;;5014864;28;20060;-63
2023/04/25 02:02:53;;;;;;;0.00;0.00;;;7.30;99.90;;;;;;5016233;28;20042;-62
2023/04/25 02:05:20;;;;;;;0.10;0.10;;;7.20;99.90;;;;;;5015801;28;20084;-63
2023/04/25 02:07:49;;;;;;;0.10;0.10;;;7.20;99.90;;;;;;5023111;28;20060;-63
2023/04/25 02:10:15;;;;;;;0.10;0.10;;;7.30;99.90;;;;;;5015764;28;20053;-62
2023/04/25 02:12:40;;;;;;;0.65;0.65;;;7.20;99.90;;;;;;5022692;28;20045;-63
2023/04/25 02:15:06;;;;;;;0.10;0.10;;;7.20;99.90;;;;;;5020421;28;20053;-63
2023/04/25 02:17:32;;;;;;;0.10;0.10;;;7.20;99.90;;;;;;5023593;28;20198;-63
2023/04/25 02:19:57;;;;;;;0.10;0.10;;;7.20;99.90;;;;;;5023768;28;20037;-63
2023/04/25 02:22:23;;;;;;;0.10;0.10;;;7.20;99.90;;;;;;5018417;28;20049;-63
2023/04/25 02:24:49;;;;;;;0.30;0.30;;;7.20;99.90;;;;;;5020950;28;20542;-62
2023/04/25 02:27:15;;;;;;;0.10;0.10;;;7.20;99.90;;;;;;5018892;28;20052;-62
2023/04/25 02:29:40;;;;;;;0.10;0.10;;;7.20;99.90;;;;;;5018148;28;20405;-62
2023/04/25 02:32:06;;;;;;;0.38;0.38;;;7.20;99.90;;;;;;5021593;28;20394;-63
2023/04/25 02:34:31;;;;;;;0.00;0.00;;;7.20;99.90;;;;;;5022481;28;20046;-63
2023/04/25 02:36:57;;;;;;;0.52;0.52;;;7.20;99.90;;;;;;5014711;28;20049;-62
2023/04/25 02:39:24;;;;;;;0.10;0.10;;;7.20;99.90;;;;;;5022374;28;20046;-62
2023/04/25 02:41:50;;;;;;;0.10;0.10;;;7.20;99.90;;;;;;5019938;28;20136;-62
2023/04/25 02:44:16;;;;;;;0.00;0.00;;;7.10;99.90;;;;;;5016934;28;20121;-62
2023/04/25 02:46:41;;;;;;;0.10;0.10;;;7.10;99.90;;;;;;5022033;28;20050;-62
2023/04/25 02:49:07;;;;;;;0.10;0.10;;;7.10;99.90;;;;;;5021742;28;20050;-62
2023/04/25 02:51:32;;;;;;;2.85;2.40;;;7.10;99.90;;;;;;5020435;28;20053;-63
2023/04/25 02:53:58;;;;;;;0.20;0.20;;;7.10;99.90;;;;;;5014145;28;20472;-62
2023/04/25 02:56:25;;;;;;;0.10;0.10;;;7.10;99.90;;;;;;5021915;28;20079;-62
2023/04/25 02:58:51;;;;;;;0.15;0.15;;;7.10;99.90;;;;;;5018916;28;20041;-63
2023/04/25 03:01:17;;;;;;;0.08;0.08;;;7.10;99.90;;;;;;5017116;28;20058;-62
2023/04/25 03:03:43;;;;;;;0.00;0.00;;;7.10;99.90;;;;;;5021236;28;20385;-62
2023/04/25 03:06:08;;;;;;;0.10;0.10;;;7.10;99.90;;;;;;5024191;28;20093;-63
2023/04/25 03:08:34;;;;;;;1.13;1.02;;;7.10;99.90;;;;;;5018473;28;20037;-63
2023/04/25 03:11:00;;;;;;;0.57;0.57;;;7.10;99.90;;;;;;5015273;28;20052;-62
2023/04/25 03:13:27;;;;;;;0.10;0.10;;;7.10;99.90;;;;;;5024448;28;20048;-63
2023/04/25 03:15:52;;;;;;;0.10;0.10;;;7.10;99.90;;;;;;5020488;28;20398;-62
2023/04/25 03:18:18;;;;;;;0.00;0.00;;;7.10;99.90;;;;;;5026326;28;20049;-62
2023/04/25 03:20:43;;;;;;;0.10;0.10;;;7.20;99.90;;;;;;5017179;28;20042;-63
2023/04/25 03:23:09;;;;;;;0.10;0.10;;;7.10;99.90;;;;;;5024060;28;20059;-63
2023/04/25 03:25:35;;;;;;;0.03;0.03;;;7.10;99.90;;;;;;5016239;28;20502;-62
2023/04/25 03:28:00;;;;;;;0.10;0.10;;;7.10;99.90;;;;;;5019413;28;20497;-63
2023/04/25 03:30:26;;;;;;;0.10;0.10;;;7.10;99.90;;;;;;5012114;28;20060;-63
2023/04/25 03:32:51;;;;;;;1.95;1.85;;;7.00;99.90;;;;;;5025831;28;20389;-63
2023/04/25 03:35:17;;;;;;;2.20;1.70;;;7.10;99.90;;;;;;5028861;28;20045;-63
2023/04/25 03:37:46;;;;;;;0.10;0.10;;;7.10;99.90;;;;;;5016290;28;20114;-63
2023/04/25 03:40:12;;;;;;;1.00;1.00;;;7.10;99.90;;;;;;5017845;28;20172;-63
2023/04/25 03:42:37;;;;;;;0.05;0.05;;;7.10;99.90;;;;;;5022867;28;20137;-63
2023/04/25 03:45:04;;;;;;;0.10;0.10;;;7.10;99.90;;;;;;5048809;28;20045;-63
2023/04/25 03:47:30;;;;;;;0.10;0.10;;;7.10;99.90;;;;;;5020148;28;20057;-64
2023/04/25 03:49:55;;;;;;;0.10;0.10;;;7.10;99.90;;;;;;5016746;28;20037;-63
2023/04/25 03:52:21;;;;;;;0.38;0.38;;;7.10;99.90;;;;;;5019351;28;20049;-63
2023/04/25 03:54:46;;;;;;;0.10;0.10;;;7.00;99.90;;;;;;5019978;28;20053;-63
2023/04/25 03:57:12;;;;;;;0.10;0.10;;;7.00;99.90;;;;;;5012344;28;20053;-64
2023/04/25 03:59:37;;;;;;;0.10;0.10;;;7.00;99.90;;;;;;5017240;28;20049;-63
2023/04/25 04:02:03;;;;;;;0.65;0.63;;;7.00;99.90;;;;;;5015996;28;20045;-64
2023/04/25 04:04:28;;;;;;;1.45;1.35;;;6.90;99.90;;;;;;5015459;28;20044;-63
2023/04/25 04:06:54;;;;;;;0.47;0.47;;;6.90;99.90;;;;;;5019698;28;20120;-63
2023/04/25 04:09:20;;;;;;;0.35;0.35;;;6.80;99.90;;;;;;5021538;28;20048;-64
2023/04/25 04:11:46;;;;;;;0.00;0.00;;;6.80;99.90;;;;;;5011412;28;20621;-63
2023/04/25 04:14:11;;;;;;;0.10;0.10;;;6.80;99.90;;;;;;5016486;28;20747;-64
2023/04/25 04:16:37;;;;;;;0.10;0.10;;;6.80;99.90;;;;;;5009806;28;20042;-63
2023/04/25 04:19:03;;;;;;;0.10;0.10;;;6.90;99.90;;;;;;5011678;28;20505;-64
2023/04/25 04:21:28;;;;;;;0.13;0.13;;;6.90;99.90;;;;;;5024245;28;20048;-63
2023/04/25 04:23:54;;;;;;;0.10;0.10;;;6.90;99.90;;;;;;5027126;28;20124;-63
2023/04/25 04:26:24;;;;;;;0.10;0.10;;;6.90;99.90;;;;;;5023614;28;20046;-64
2023/04/25 04:28:54;;;;;;;1.08;1.08;;;7.00;99.90;;;;;;5014369;28;20045;-63
2023/04/25 04:31:23;;;;;;;0.20;0.20;;;7.00;99.90;;;;;;5028091;28;20049;-63
2023/04/25 04:33:49;;;;;;;0.03;0.03;;;7.00;99.90;;;;;;5023908;28;20528;-63
2023/04/25 04:36:15;;;;;;;0.10;0.10;;;7.00;99.90;;;;;;5018243;28;20041;-63
2023/04/25 04:38:42;;;;;;;0.10;0.10;;;7.00;99.90;;;;;;5013974;28;20038;-64
2023/04/25 04:41:08;;;;;;;0.10;0.10;;;6.90;99.90;;;;;;5025843;28;20070;-63
2023/04/25 04:43:33;;;;;;;0.35;0.35;;;7.00;99.90;;;;;;5018732;28;20073;-64
2023/04/25 04:46:00;;;;;;;0.10;0.10;;;7.00;99.90;;;;;;5028523;28;20053;-63
2023/04/25 04:48:26;;;;;;;0.17;0.17;;;7.00;99.90;;;;;;5029806;28;20133;-63
2023/04/25 04:50:52;;;;;;;0.17;0.17;;;7.00;99.90;;;;;;5023689;28;20120;-63
2023/04/25 04:53:17;;;;;;;0.10;0.10;;;6.90;99.90;;;;;;5030422;28;20509;-63
2023/04/25 04:55:43;;;;;;;0.03;0.03;;;7.00;99.90;;;;;;5030120;28;20048;-63
2023/04/25 04:58:09;;;;;;;0.10;0.10;;;7.00;99.90;;;;;;5025848;28;20390;-64
2023/04/25 05:00:34;;;;;;;0.00;0.00;;;7.00;99.90;;;;;;5024028;28;20076;-63
2023/04/25 05:03:00;;;;;;;0.00;0.00;;;7.00;99.90;;;;;;5022419;28;20121;-63
2023/04/25 05:05:26;;;;;;;0.43;0.43;;;7.10;99.90;;;;;;5029492;28;20041;-63
2023/04/25 05:07:51;;;;;;;0.10;0.10;;;7.10;99.90;;;;;;5026124;28;20524;-63
2023/04/25 05:10:18;;;;;;;0.10;0.10;;;7.10;99.90;;;;;;5032002;28;20053;-63
2023/04/25 05:12:44;;;;;;;0.13;0.13;;;7.00;99.90;;;;;;5017898;28;20092;-63
2023/04/25 05:15:10;;;;;;;0.32;0.30;;;7.00;99.90;;;;;;5028417;28;20072;-63
2023/04/25 05:17:35;;;;;;;0.10;0.10;;;7.00;99.90;;;;;;5014567;28;20097;-63
2023/04/25 05:20:01;;;;;;;0.28;0.28;;;7.00;99.90;;;;;;5020986;28;20979;-63
2023/04/25 05:22:27;;;;;;;0.10;0.10;;;7.00;99.90;;;;;;5023333;28;20056;-63
2023/04/25 05:24:53;;;;;;;0.00;0.00;;;6.90;99.90;;;;;;5029489;28;20048;-63
2023/04/25 05:27:18;;;;;;;0.10;0.10;;;7.00;99.90;;;;;;5020267;28;20050;-63
2023/04/25 05:29:44;;;;;;;0.10;0.10;;;7.00;99.90;;;;;;5018883;28;20034;-63
2023/04/25 05:32:10;;;;;;;0.00;0.00;;;7.10;99.90;;;;;;5022314;28;20041;-63
2023/04/25 05:34:36;;;;;;;0.10;0.10;;;7.20;99.90;;;;;;5019874;28;20061;-63
2023/04/25 05:37:02;;;;;;;0.30;0.30;;;7.20;99.90;;;;;;5018769;28;20046;-63
2023/04/25 05:39:28;;;;;;;0.10;0.10;;;7.20;99.90;;;;;;5015201;28;20493;-63
2023/04/25 05:41:54;;;;;;;0.10;0.10;;;7.20;99.90;;;;;;5022131;28;20076;-63
2023/04/25 05:44:19;;;;;;;0.40;0.40;;;7.20;99.90;;;;;;5027140;28;20045;-63
2023/04/25 05:46:45;;;;;;;0.17;0.17;;;7.20;99.90;;;;;;5025185;28;20049;-63
2023/04/25 05:49:10;;;;;;;0.13;0.13;;;7.20;99.90;;;;;;5026663;28;20083;-63
2023/04/25 05:51:36;;;;;;;0.10;0.10;;;7.30;99.90;;;;;;5021007;28;20382;-64
2023/04/25 05:54:01;;;;;;;0.00;0.00;;;7.20;99.90;;;;;;5020300;28;20084;-63
2023/04/25 05:56:27;;;;;;;1.00;0.50;;;7.10;99.90;;;;;;5023738;28;20045;-63
2023/04/25 05:58:53;;;;;;;0.10;0.10;;;7.00;99.90;;;;;;5016567;28;20507;-63
2023/04/25 06:01:18;;;;;;;0.10;0.10;;;6.90;99.90;;;;;;5019717;28;20124;-63
2023/04/25 06:03:44;;;;;;;0.00;0.00;;;6.80;99.90;;;;;;5012644;28;20140;-63
2023/04/25 06:06:11;;;;;;;0.20;0.20;;;6.80;99.90;;;;;;5022373;28;20393;-63
2023/04/25 06:08:38;;;;;;;0.10;0.10;;;6.70;99.90;;;;;;5018115;28;20087;-63
2023/04/25 06:11:04;;;;;;;0.20;0.20;;;6.70;99.90;;;;;;5021705;28;20133;-63
2023/04/25 06:13:30;;;;;;;0.10;0.10;;;6.70;99.90;;;;;;5020899;28;20044;-63
2023/04/25 06:15:55;;;;;;;0.00;0.00;;;6.70;99.90;;;;;;5022831;28;20046;-64
2023/04/25 06:18:21;;;;;;;0.73;0.73;;;6.80;99.90;;;;;;5025765;28;20049;-64
2023/04/25 06:20:46;;;;;;;0.10;0.10;;;6.90;99.90;;;;;;5025418;28;20053;-64
2023/04/25 06:23:12;;;;;;;0.10;0.10;;;7.00;99.90;;;;;;5018773;28;20064;-64
2023/04/25 06:25:37;;;;;;;0.10;0.10;;;7.10;99.90;;;;;;5023018;28;20045;-64
2023/04/25 06:28:03;;;;;;;0.10;0.10;;;7.30;99.90;;;;;;5017600;28;20049;-63
2023/04/25 06:30:29;;;;;;;0.10;0.10;;;7.30;99.90;;;;;;5017663;28;20041;-64
2023/04/25 06:32:55;;;;;;;0.10;0.10;;;7.40;99.90;;;;;;5019495;28;20112;-64
2023/04/25 06:35:21;;;;;;;0.10;0.10;;;7.50;99.90;;;;;;5015750;28;20869;-63
2023/04/25 06:37:46;;;;;;;0.10;0.10;;;7.60;99.90;;;;;;5014048;28;20053;-64
2023/04/25 06:40:12;;;;;;;0.03;0.03;;;7.70;99.90;;;;;;5013613;28;20044;-65
2023/04/25 06:42:38;;;;;;;0.85;0.85;;;7.70;99.90;;;;;;5020298;28;20190;-64
2023/04/25 06:45:04;;;;;;;0.10;0.10;;;7.50;99.90;;;;;;5013039;28;20444;-64
2023/04/25 06:47:29;;;;;;;0.03;0.03;;;7.40;99.90;;;;;;5022880;28;20049;-64
2023/04/25 06:49:55;;;;;;;6.88;0.98;;;7.30;99.90;;;;;;5020355;28;20034;-64
2023/04/25 06:52:21;;;;;;;1.00;0.75;;;7.20;99.90;;;;;;5034121;28;20120;-64
2023/04/25 06:54:46;;;;;;;4.57;2.20;;;7.10;99.90;;;;;;5017836;28;20494;-64
2023/04/25 06:57:12;;;;;;;1.75;0.55;;;7.20;99.90;;;;;;5014140;28;20179;-64
2023/04/25 06:59:38;;;;;;;0.08;0.08;;;7.20;99.90;;;;;;5026186;28;20049;-64
2023/04/25 07:02:03;;;;;;;0.10;0.10;;;7.30;99.90;;;;;;5029707;28;20432;-64
2023/04/25 07:04:30;;;;;;;0.10;0.10;;;7.40;99.90;;;;;;5024061;28;20046;-64
2023/04/25 07:06:56;;;;;;;0.10;0.10;;;7.40;99.90;;;;;;5029650;28;20508;-65
2023/04/25 07:09:22;;;;;;;0.10;0.10;;;7.60;99.90;;;;;;5030584;28;20049;-64
2023/04/25 07:11:47;;;;;;;6.13;1.13;;;7.60;99.90;;;;;;5015664;28;20042;-64
2023/04/25 07:14:13;;;;;;;0.00;0.00;;;7.70;99.90;;;;;;5024228;28;20508;-64
2023/04/25 07:16:38;;;;;;;0.10;0.10;;;7.70;99.90;;;;;;5030380;28;20115;-65
2023/04/25 07:19:04;;;;;;;0.10;0.10;;;7.70;99.90;;;;;;5010232;28;20096;-65
2023/04/25 07:21:30;;;;;;;0.10;0.10;;;7.80;99.90;;;;;;5019566;28;20049;-65
2023/04/25 07:23:56;;;;;;;0.10;0.10;;;7.80;99.90;;;;;;5019700;28;20053;-65
2023/04/25 07:26:22;;;;;;;0.05;0.05;;;7.70;99.90;;;;;;5020647;28;20042;-65
2023/04/25 07:28:50;;;;;;;0.10;0.10;;;7.70;99.90;;;;;;5017023;28;20038;-65
2023/04/25 07:31:17;;;;;;;1.20;0.80;;;7.80;99.90;;;;;;5017240;28;20057;-65
2023/04/25 07:33:44;;;;;;;0.20;0.20;;;8.00;99.90;;;;;;5020273;28;20037;-65
2023/04/25 07:36:10;;;;;;;0.10;0.10;;;8.10;99.90;;;;;;5019825;28;20060;-65
2023/04/25 07:38:36;;;;;;;0.25;0.25;;;8.30;99.90;;;;;;5027102;28;20041;-65
2023/04/25 07:41:02;;;;;;;2.55;1.73;;;8.30;99.90;;;;;;5018553;28;20124;-65
2023/04/25 07:43:27;;;;;;;0.20;0.20;;;8.40;99.90;;;;;;5029895;28;20041;-65
2023/04/25 07:45:53;;;;;;;7.28;1.67;;;8.40;99.90;;;;;;5013415;28;20038;-65
2023/04/25 07:48:19;;;;;;;0.77;0.77;;;8.50;99.90;;;;;;5010607;28;20055;-65
2023/04/25 07:50:45;;;;;;;0.00;0.00;;;8.60;99.90;;;;;;5030168;28;20030;-65
2023/04/25 07:53:10;;;;;;;2.97;1.05;;;8.60;99.90;;;;;;5012181;28;20100;-64
2023/04/25 07:55:39;;;;;;;0.00;0.00;;;8.80;99.90;;;;;;5021766;28;20469;-65
2023/04/25 07:58:08;;;;;;;0.10;0.10;;;8.90;99.90;;;;;;5023235;28;20057;-64
2023/04/25 08:00:34;;;;;;;0.00;0.00;;;9.00;99.90;;;;;;5025363;28;20501;-64
2023/04/25 08:03:00;;;;;;;0.20;0.20;;;8.90;99.90;;;;;;5022502;28;20076;-64
2023/04/25 08:05:25;;;;;;;0.10;0.10;;;8.90;99.90;;;;;;5030122;28;20179;-64
2023/04/25 08:07:51;;;;;;;0.10;0.10;;;8.90;99.90;;;;;;5022603;28;20140;-64
2023/04/25 08:10:17;;;;;;;0.60;0.60;;;8.90;99.90;;;;;;5020139;28;20050;-64
2023/04/25 08:12:42;;;;;;;0.20;0.20;;;8.90;99.90;;;;;;5046142;28;20057;-63
2023/04/25 08:15:08;;;;;;;0.00;0.00;;;9.00;99.90;;;;;;5019571;28;20050;-63
2023/04/25 08:17:34;;;;;;;0.03;0.03;;;9.00;99.90;;;;;;5038458;28;20443;-63
2023/04/25 08:20:00;;;;;;;0.00;0.00;;;9.20;99.90;;;;;;5032906;28;20045;-63
2023/04/25 08:22:25;;;;;;;0.43;0.43;;;9.30;99.90;;;;;;5021974;28;20050;-63
2023/04/25 08:24:51;;;;;;;0.20;0.20;;;9.40;99.90;;;;;;5023552;28;20042;-63
2023/04/25 08:27:18;;;;;;;0.10;0.10;;;9.60;99.90;;;;;;5025931;28;20041;-63
2023/04/25 08:29:43;;;;;;;0.73;0.73;;;9.50;99.90;;;;;;5028961;28;20065;-63
2023/04/25 08:32:09;;;;;;;0.00;0.00;;;9.40;99.90;;;;;;5032325;28;20118;-63
2023/04/25 08:34:36;;;;;;;1.75;1.65;;;9.40;99.90;;;;;;5024052;28;20048;-63
2023/04/25 08:37:04;;;;;;;0.10;0.10;;;9.30;99.90;;;;;;5048214;28;20046;-63
2023/04/25 08:39:29;;;;;;;0.00;0.00;;;9.20;99.90;;;;;;5023554;28;20049;-63
2023/04/25 08:41:56;;;;;;;0.00;0.00;;;9.00;99.90;;;;;;5024217;28;20049;-63
2023/04/25 08:44:23;;;;;;;0.25;0.25;;;9.30;99.90;;;;;;5023292;28;20069;-63
2023/04/25 08:46:52;;;;;;;0.20;0.20;;;10.00;99.90;;;;;;5026896;28;20046;-63
2023/04/25 08:49:18;;;;;;;0.57;0.57;;;10.70;99.90;;;;;;5032284;28;20049;-63
2023/04/25 08:51:50;;;;;;;0.10;0.10;;;11.20;99.90;;;;;;5031335;28;20065;-63
2023/04/25 08:54:16;;;;;;;0.10;0.10;;;11.70;99.90;;;;;;5020363;28;20038;-65
2023/04/25 08:56:45;;;;;;;0.10;0.10;;;12.30;99.90;;;;;;5028823;28;20099;-64
2023/04/25 08:59:11;;;;;;;0.28;0.28;;;12.80;99.90;;;;;;5022571;28;20057;-64
2023/04/25 09:01:37;;;;;;;0.20;0.20;;;13.20;99.90;;;;;;5019894;28;20045;-64
2023/04/25 09:04:03;;;;;;;0.10;0.10;;;13.20;99.90;;;;;;5021973;28;20379;-64
2023/04/25 09:06:30;;;;;;;0.10;0.10;;;13.60;99.90;;;;;;5019271;28;20064;-64
2023/04/25 09:09:07;;;;;;;0.40;0.40;;;13.30;99.90;;;;;;5026543;28;20144;-63
2023/04/25 09:11:34;;;;;;;0.10;0.10;;;12.60;99.90;;;;;;5023005;28;20041;-64
2023/04/25 09:14:17;;;;;;;0.10;0.10;;;12.20;99.90;;;;;;5031443;28;20056;-64
2023/04/25 09:17:00;;;;;;;0.10;0.10;;;11.60;99.90;;;;;;5025926;28;20496;-63
2023/04/25 09:19:34;;;;;;;0.10;0.10;;;11.20;99.90;;;;;;5032547;28;20128;-64
2023/04/25 09:22:02;;;;;;;0.00;0.00;;;10.30;99.90;;;;;;5032964;28;20404;-63
2023/04/25 09:24:45;;;;;;;0.10;0.10;;;9.70;99.90;;;;;;5015256;28;20045;-63
2023/04/25 09:27:17;;;;;;;0.22;0.22;;;9.70;99.90;;;;;;5025843;28;20465;-63
2023/04/25 09:29:43;;;;;;;0.00;0.00;;;9.90;99.90;;;;;;5032526;28;20049;-63
2023/04/25 09:32:23;;;;;;;0.73;0.73;;;10.30;99.90;;;;;;5021930;28;20370;-64
2023/04/25 09:34:50;;;;;;;0.10;0.10;;;10.50;99.90;;;;;;5021382;28;20045;-63
2023/04/25 09:37:26;;;;;;;0.10;0.10;;;10.50;99.90;;;;;;5019004;28;20038;-63
2023/04/25 09:40:01;;;;;;;0.10;0.10;;;10.30;99.90;;;;;;5031918;28;20079;-63
2023/04/25 09:42:28;;;;;;;0.30;0.30;;;10.20;99.90;;;;;;5025165;28;20814;-64
2023/04/25 09:44:55;;;;;;;0.00;0.00;;;10.10;99.90;;;;;;5018981;28;20476;-63
2023/04/25 09:47:23;;;;;;;0.00;0.00;;;10.20;99.90;;;;;;5026310;28;20038;-64
2023/04/25 09:49:50;;;;;;;9.55;1.45;;;10.30;99.90;;;;;;5031164;28;20107;-64
2023/04/25 09:52:20;;;;;;;0.10;0.10;;;10.40;99.90;;;;;;5030847;28;20076;-64
2023/04/25 09:54:46;;;;;;;0.00;0.00;;;10.30;99.90;;;;;;5021723;28;20049;-64
2023/04/25 09:57:19;;;;;;;0.10;0.10;;;10.40;99.90;;;;;;5027363;28;20057;-64
2023/04/25 09:59:49;;;;;;;0.10;0.10;;;10.60;99.90;;;;;;5015121;28;20591;-64
2023/04/25 10:02:19;;;;;;;0.10;0.10;;;10.50;99.90;;;;;;5024317;28;20449;-65
2023/04/25 10:04:48;;;;;;;1.85;1.75;;;10.50;99.90;;;;;;5019797;28;20117;-64
2023/04/25 10:07:14;;;;;;;0.10;0.10;;;10.50;99.90;;;;;;5029949;28;20041;-65
2023/04/25 10:09:41;;;;;;;0.10;0.10;;;10.50;99.90;;;;;;5017561;28;20128;-65
2023/04/25 10:12:07;;;;;;;0.73;0.25;;;10.70;99.90;;;;;;5021093;28;20073;-64
2023/04/25 10:14:34;;;;;;;0.10;0.10;;;11.20;99.90;;;;;;5027664;28;20392;-65
2023/04/25 10:17:01;;;;;;;0.20;0.20;;;12.00;99.90;;;;;;5020192;28;20136;-64
2023/04/25 10:19:27;;;;;;;0.10;0.10;;;12.40;99.90;;;;;;5021628;28;20103;-64
2023/04/25 10:22:00;;;;;;;0.10;0.10;;;12.60;99.90;;;;;;5021830;28;20374;-63
2023/04/25 10:24:27;;;;;;;0.20;0.20;;;12.60;99.90;;;;;;5020672;28;20112;-63
2023/04/25 10:26:52;;;;;;;0.10;0.10;;;12.80;99.90;;;;;;5045010;28;20049;-63
2023/04/25 10:29:27;;;;;;;3.75;0.57;;;13.30;99.90;;;;;;5016183;28;20071;-63
2023/04/25 10:31:53;;;;;;;0.40;0.40;;;13.10;99.90;;;;;;5022113;28;20041;-64
2023/04/25 10:34:19;;;;;;;0.03;0.03;;;12.70;99.90;;;;;;5034114;28;20459;-63
2023/04/25 10:36:52;;;;;;;0.20;0.20;;;12.00;99.90;;;;;;5014158;28;20107;-64
2023/04/25 10:39:26;;;;;;;0.00;0.00;;;11.50;99.90;;;;;;5022797;28;20043;-64
2023/04/25 10:41:58;;;;;;;0.00;0.00;;;10.90;99.90;;;;;;5028331;28;20045;-64
2023/04/25 10:44:29;;;;;;;0.20;0.20;;;10.50;99.90;;;;;;5021856;28;20092;-64
2023/04/25 10:46:56;;;;;;;0.10;0.10;;;10.10;99.90;;;;;;5025806;28;20049;-64
2023/04/25 10:49:35;;;;;;;0.00;0.00;;;9.90;99.90;;;;;;5022327;28;20546;-63
2023/04/25 10:52:33;;;;;;;0.00;0.00;;;10.20;99.90;;;;;;5015214;28;20103;-64
2023/04/25 10:54:59;;;;;;;0.10;0.10;;;11.10;99.90;;;;;;5021520;28;20493;-64
2023/04/25 10:57:29;;;;;;;0.10;0.10;;;11.40;99.90;;;;;;5030041;28;20044;-64
2023/04/25 10:59:59;;;;;;;4.72;0.90;;;11.50;99.90;;;;;;5028410;28;20057;-63
2023/04/25 11:02:28;;;;;;;0.00;0.00;;;11.90;99.90;;;;;;5024609;28;20061;-64
2023/04/25 11:04:54;;;;;;;0.05;0.05;;;12.10;99.90;;;;;;5028753;28;20092;-64
2023/04/25 11:07:51;;;;;;;0.10;0.10;;;12.20;99.90;;;;;;5030582;28;20129;-64
2023/04/25 11:10:17;;;;;;;0.00;0.00;;;12.10;99.90;;;;;;5016628;28;20060;-64
2023/04/25 11:12:42;;;;;;;0.10;0.10;;;12.40;99.90;;;;;;5042685;28;20102;-64
2023/04/25 11:15:08;;;;;;;0.00;0.00;;;12.40;99.90;;;;;;5017618;28;20449;-64
2023/04/25 11:17:34;;;;;;;0.28;0.28;;;12.70;99.90;;;;;;5015713;28;20452;-64
2023/04/25 11:20:00;;;;;;;0.05;0.05;;;12.90;99.90;;;;;;5030194;28;20052;-64
2023/04/25 11:22:27;;;;;;;0.10;0.10;;;13.20;99.90;;;;;;5025251;28;20751;-64
2023/04/25 11:24:53;;;;;;;0.32;0.32;;;12.80;99.90;;;;;;5015682;28;20120;-64
2023/04/25 11:27:20;;;;;;;0.10;0.10;;;12.70;99.90;;;;;;5014531;28;20532;-64
2023/04/25 11:29:47;;;;;;;2.65;0.82;;;12.60;99.90;;;;;;5017741;28;20495;-64
2023/04/25 11:32:15;;;;;;;0.00;0.00;;;11.80;99.90;;;;;;5023641;28;20898;-64
2023/04/25 11:34:43;;;;;;;0.20;0.20;;;11.60;99.90;;;;;;5017608;28;20489;-64
2023/04/25 11:37:11;;;;;;;0.10;0.10;;;11.40;99.90;;;;;;5057771;28;20053;-63
2023/04/25 11:39:37;;;;;;;0.10;0.10;;;11.70;99.90;;;;;;5021030;28;20068;-64
2023/04/25 11:42:04;;;;;;;0.15;0.15;;;11.50;99.90;;;;;;5028978;28;20058;-64
2023/04/25 11:44:30;;;;;;;0.55;0.55;;;11.10;99.90;;;;;;5010887;28;20049;-64
2023/04/25 11:46:55;;;;;;;0.10;0.10;;;10.90;99.90;;;;;;5009795;28;20038;-64
2023/04/25 11:49:21;;;;;;;0.10;0.10;;;11.50;99.90;;;;;;5030566;28;20136;-64
2023/04/25 11:51:48;;;;;;;0.10;0.10;;;11.60;99.90;;;;;;5023086;28;20068;-64
2023/04/25 11:54:14;;;;;;;0.10;0.10;;;11.40;99.90;;;;;;5020716;28;20049;-64
2023/04/25 11:56:46;;;;;;;0.10;0.10;;;11.70;99.90;;;;;;5024658;28;20041;-64
2023/04/25 11:59:12;;;;;;;0.10;0.10;;;12.30;99.90;;;;;;5021522;28;20515;-64
2023/04/25 12:01:40;;;;;;;0.57;0.57;;;12.30;99.90;;;;;;5017884;28;20350;-64
2023/04/25 12:04:22;;;;;;;0.00;0.00;;;12.20;99.90;;;;;;5024587;28;20108;-64
2023/04/25 12:06:50;;;;;;;0.05;0.05;;;12.00;99.90;;;;;;5027303;28;20046;-64
2023/04/25 12:09:23;;;;;;;12.52;1.30;;;11.90;99.90;;;;;;5030306;28;20076;-65
2023/04/25 12:11:54;;;;;;;0.10;0.10;;;11.70;99.90;;;;;;5029730;28;20168;-64
2023/04/25 12:14:26;;;;;;;0.25;0.25;;;11.90;99.90;;;;;;5018823;28;20038;-64
2023/04/25 12:16:53;;;;;;;0.43;0.32;;;12.00;99.90;;;;;;5018971;28;20032;-65
2023/04/25 12:19:20;;;;;;;0.20;0.20;;;12.50;99.90;;;;;;5026762;28;20048;-64
2023/04/25 12:21:46;;;;;;;0.10;0.10;;;13.00;99.90;;;;;;5019308;28;20057;-64
2023/04/25 12:24:18;;;;;;;0.57;0.57;;;13.30;99.90;;;;;;5021910;28;20046;-64
2023/04/25 12:26:58;;;;;;;0.10;0.10;;;13.60;99.80;;;;;;5018723;28;20052;-64
2023/04/25 12:29:25;;;;;;;0.00;0.00;;;13.80;99.90;;;;;;5015978;28;20042;-64
2023/04/25 12:31:53;;;;;;;0.30;0.30;;;14.30;99.90;;;;;;5030078;28;20081;-64
2023/04/25 12:34:19;;;;;;;0.10;0.10;;;14.70;99.90;;;;;;5025407;28;20049;-65
2023/04/25 12:36:46;;;;;;;0.00;0.00;;;14.20;99.90;;;;;;5014866;28;20050;-64
2023/04/25 12:39:23;;;;;;;0.00;0.00;;;13.90;99.90;;;;;;5026082;28;20045;-64
2023/04/25 12:41:54;;;;;;;1.45;1.02;;;14.30;99.90;;;;;;5027888;28;20042;-64
2023/04/25 12:44:20;;;;;;;0.10;0.10;;;14.30;99.90;;;;;;5027970;28;20481;-65
2023/04/25 12:46:47;;;;;;;0.77;0.63;;;13.90;99.90;;;;;;5029285;28;20083;-65
2023/04/25 12:49:13;;;;;;;0.00;0.00;;;13.90;99.90;;;;;;5022422;28;20528;-64
2023/04/25 12:51:39;;;;;;;0.10;0.10;;;14.10;99.50;;;;;;5026166;28;20053;-64